Latest Weather Observations for Orange Airport

IDN60801

Issued at 8:12 pm EDT Wednesday 1 April 2015 (issued every 30 minutes, with the page automatically refreshed every 10 minutes)

About weather observations | Map of weather stations | Latest weather observations for NSW | Other Formats
Station Details ID: 063303 Name: ORANGE AIRPORT AWS Lat: -33.38 Lon: 149.13 Height: 944.65 m
Data from the previous 72 hours. | See also: Recent months at Orange Airport
Date/Time
EDT
Temp
°C
App
Temp
°C
Dew
Point
Rel
Hum
%
Delta-T
°C
Wind Press
QNH
hPa
Press
MSL
hPa
Rain
since 9 am
mm
Dir
 
Spd
km/h
Gust
km/h
Spd
kts
Gust
kts
01/08:00pm 16.9 17.0 10.3 65 3.7 CALM 0 0 0 0 1022.8 1021.1 0.0
01/07:30pm 17.2 16.5 10.1 63 3.9 NNW 4 7 2 4 1022.5 1020.9 0.0
01/07:00pm 18.1 16.3 9.5 57 4.7 NNW 9 13 5 7 1022.2 1020.6 0.0
01/06:30pm 20.7 17.8 9.6 49 6.2 N 15 20 8 11 1022.1 1020.5 0.0
01/06:00pm 21.6 18.0 9.8 47 6.6 NNW 19 24 10 13 1022.0 1020.3 0.0
01/05:30pm 22.1 18.8 9.6 45 7.0 N 17 28 9 15 1022.1 1020.5 0.0
01/05:00pm 22.1 19.4 10.3 47 6.7 NNW 15 20 8 11 1022.1 1020.5 0.0
01/04:30pm 22.1 18.7 10.6 48 6.6 NNE 19 24 10 13 1022.2 1020.6 0.0
01/04:00pm 22.5 20.2 10.3 46 7.0 N 13 20 7 11 1022.3 1020.7 0.0
01/03:30pm 23.4 20.8 10.8 45 7.3 NNE 15 24 8 13 1022.4 1020.8 0.0
01/03:00pm 22.8 20.3 10.9 47 6.9 NNE 15 24 8 13 1022.9 1021.2 0.0
01/02:30pm 21.0 17.5 10.2 50 6.1 NNE 19 28 10 15 1023.1 1021.5 0.0
01/02:00pm 21.8 18.9 10.9 50 6.3 NNE 17 32 9 17 1023.4 1021.8 0.0
01/01:30pm 21.1 18.2 10.9 52 5.8 NNE 17 22 9 12 1024.0 1022.4 0.0
01/01:00pm 21.4 18.7 11.7 54 5.6 NE 17 30 9 16 1024.3 1022.7 0.0
01/12:30pm 20.8 18.0 12.5 59 4.9 NNE 19 28 10 15 1025.0 1023.4 0.0
01/12:00pm 20.3 17.3 12.0 59 4.8 NNE 19 24 10 13 1025.6 1024.0 0.0
01/11:30am 18.8 17.0 12.1 65 3.9 NNE 13 20 7 11 1025.9 1024.4 0.0
01/11:00am 18.0 15.8 12.0 68 3.4 NNE 15 22 8 12 1026.3 1024.7 0.0
01/10:30am 17.0 15.3 12.3 74 2.7 NNE 13 19 7 10 1026.7 1023.4 0.0
01/10:28am 17.2 15.6 12.7 75 2.6 NNE 13 20 7 11 1026.6 1023.3 0.0
01/10:00am 16.2 12.9 12.7 80 2.0 NNE 22 28 12 15 1026.7 1023.4 0.0
01/09:30am 14.6 11.5 12.3 86 1.3 NE 20 28 11 15 1026.6 1023.3 0.0
01/09:17am 14.5 12.0 12.4 87 1.2 NE 17 24 9 13 1026.6 1023.3 0.0
01/09:00am 14.5 11.7 12.5 88 1.1 NE 19 26 10 14 1026.4 1023.1 0.0
01/08:30am 13.7 11.6 12.4 92 0.7 NE 15 20 8 11 1026.2 1022.9 0.0
01/08:00am 12.8 11.2 11.7 93 0.6 ENE 11 17 6 9 1025.8 1022.5 0.0
01/07:30am 11.5 9.6 10.4 93 0.6 NE 11 13 6 7 1025.6 1022.3 0.0
01/07:00am 11.8 10.3 10.7 93 0.6 NNE 9 15 5 8 1025.4 1022.1 0.0
01/06:30am 11.9 9.7 10.8 93 0.6 ENE 13 19 7 10 1025.3 1022.0 0.0
01/06:00am 12.2 10.1 11.1 93 0.6 NE 13 19 7 10 1025.2 1021.9 0.0
01/05:30am 12.0 10.2 10.9 93 0.6 ENE 11 15 6 8 1025.1 1021.7 0.0
01/05:00am 11.9 10.5 10.8 93 0.6 NE 9 13 5 7 1025.2 1021.9 0.0
01/04:30am 11.9 10.1 10.8 93 0.6 NE 11 15 6 8 1025.2 1021.9 0.0
01/04:04am 11.6 10.1 10.5 93 0.6 NE 9 13 5 7 1025.4 1022.1 0.0
01/04:00am 11.5 10.0 10.4 93 0.6 NE 9 13 5 7 1025.4 1022.1 0.0
01/03:30am 12.4 10.7 11.3 93 0.6 NE 11 15 6 8 1025.8 1022.5 0.0
01/03:00am 12.2 10.9 11.1 93 0.6 NE 9 13 5 7 1026.2 1022.9 0.0
01/02:30am 12.3 11.0 11.2 93 0.6 NE 9 15 5 8 1026.4 1023.1 0.0
01/02:00am 12.2 9.7 11.1 93 0.6 ENE 15 19 8 10 1026.4 1023.1 0.0
01/01:55am 12.1 10.0 11.0 93 0.6 ENE 13 17 7 9 1026.4 1023.1 0.0
01/01:30am 11.8 10.0 10.7 93 0.6 NE 11 17 6 9 1026.7 1023.4 0.0
01/01:00am 11.9 10.1 10.8 93 0.6 ENE 11 17 6 9 1026.8 1023.5 0.0
01/12:30am 11.8 9.2 10.7 93 0.6 ENE 15 19 8 10 1026.8 1023.5 0.0
01/12:00am 12.6 10.1 11.2 91 0.8 ENE 15 20 8 11 1027.1 1023.9 0.0
 
Date/Time
EDT
Temp
°C
App
Temp
°C
Dew
Point
Rel
Hum
%
Delta-T
°C
Wind Press
QNH
hPa
Press
MSL
hPa
Rain
since 9 am
mm
Dir
 
Spd
km/h
Gust
km/h
Spd
kts
Gust
kts
31/11:30pm 12.3 10.5 10.7 90 0.9 NE 11 17 6 9 1026.9 1023.6 0.0
31/11:00pm 12.6 10.0 10.7 88 1.0 NE 15 20 8 11 1026.9 1023.6 0.0
31/10:30pm 12.7 9.7 10.6 87 1.1 NE 17 24 9 13 1027.1 1023.9 0.0
31/10:00pm 13.0 10.5 10.9 87 1.2 ENE 15 20 8 11 1027.1 1023.9 0.0
31/09:30pm 13.1 10.3 11.2 88 1.1 ENE 17 22 9 12 1027.1 1023.9 0.0
31/09:00pm 13.6 10.4 11.3 86 1.3 E 19 24 10 13 1027.0 1023.8 0.0
31/08:30pm 13.6 10.2 10.6 82 1.6 E 19 26 10 14 1026.6 1023.3 0.0
31/08:00pm 14.5 10.7 11.1 80 1.9 E 22 30 12 16 1026.3 1023.0 0.0
31/07:30pm 15.3 11.0 10.9 75 2.5 E 24 33 13 18 1025.9 1022.6 0.0
31/07:00pm 16.7 12.8 10.8 68 3.3 E 22 30 12 16 1025.5 1022.2 0.0
31/06:30pm 17.7 14.1 10.6 63 4.0 E 20 28 11 15 1025.4 1022.1 0.0
31/06:00pm 18.7 15.2 10.8 60 4.5 E 20 30 11 16 1025.2 1021.9 0.0
31/05:30pm 20.0 16.4 10.4 54 5.4 E 20 30 11 16 1025.2 1021.9 0.0
31/05:00pm 20.4 16.1 9.3 49 6.1 E 22 32 12 17 1025.3 1022.0 0.0
31/04:30pm 21.3 17.4 9.5 47 6.6 E 20 26 11 14 1025.2 1021.9 0.0
31/04:00pm 20.9 16.2 9.2 47 6.5 E 24 32 13 17 1025.6 1022.3 0.0
31/03:30pm 21.4 17.4 9.0 45 6.9 E 20 28 11 15 1025.8 1022.5 0.0
31/03:00pm 21.8 18.1 9.3 45 7.0 ENE 19 26 10 14 1026.1 1022.7 0.0
31/02:30pm 19.8 16.4 9.1 50 5.9 ENE 17 24 9 13 1026.3 1023.0 0.0
31/02:00pm 21.3 17.5 9.2 46 6.7 NE 19 28 10 15 1026.5 1023.2 0.0
31/01:30pm 21.0 17.7 10.8 52 5.8 ENE 19 26 10 14 1026.8 1023.5 0.0
31/01:00pm 20.1 16.3 9.9 52 5.7 ENE 20 32 11 17 1027.3 1024.0 0.0
31/12:30pm 19.8 15.8 10.5 55 5.3 ENE 22 30 12 16 1027.6 1024.3 0.0
31/12:00pm 19.7 15.8 10.9 57 5.0 ENE 22 33 12 18 1028.0 1024.8 0.0
31/11:30am 17.3 13.1 9.7 61 4.2 ENE 22 32 12 17 1028.6 1025.3 0.0
31/11:00am 16.0 11.5 9.9 67 3.3 E 24 33 13 18 1028.7 1025.4 0.0
31/10:30am 16.1 12.2 9.5 65 3.6 ENE 20 30 11 16 1028.4 1025.1 0.0
31/10:00am 16.9 13.4 10.3 65 3.7 ENE 19 26 10 14 1028.1 1024.9 0.0
31/09:30am 15.7 12.5 10.0 69 3.1 ENE 17 24 9 13 1027.8 1024.5 0.0
31/09:00am 14.9 12.7 12.2 84 1.5 ENE 15 19 8 10 1027.6 1024.3 0.0
31/08:30am 11.6 11.8 10.5 93 0.6 CALM 0 4 0 2 1027.3 1024.0 0.0
31/08:28am 11.5 11.7 10.4 93 0.6 CALM 0 0 0 0 1027.3 1024.0 0.0
31/08:00am 10.7 10.3 9.6 93 0.6 ESE 2 9 1 5 1027.0 1023.8 0.0
31/07:53am 10.4 8.6 9.3 93 0.6 ESE 9 11 5 6 1026.9 1023.6 0.0
31/07:30am 9.2 6.7 8.1 93 0.6 SE 11 13 6 7 1026.7 1023.4 0.0
31/07:00am 10.3 9.4 9.2 93 0.6 ESE 4 7 2 4 1026.3 1023.0 0.0
31/06:30am 10.6 9.2 9.5 93 0.6 ENE 7 11 4 6 1025.9 1022.6 0.0
31/06:00am 11.1 9.8 10.0 93 0.6 E 7 11 4 6 1025.7 1022.4 0.0
31/05:30am 11.3 9.7 10.2 93 0.6 E 9 11 5 6 1025.7 1022.4 0.0
31/05:00am 11.2 9.2 10.1 93 0.6 ESE 11 13 6 7 1025.6 1022.3 0.0
31/04:30am 11.6 10.7 10.5 93 0.6 E 6 7 3 4 1025.7 1022.4 0.0
31/04:00am 11.9 9.7 10.8 93 0.6 E 13 15 7 8 1025.9 1022.6 0.0
31/03:30am 11.5 10.3 10.4 93 0.6 ESE 7 9 4 5 1025.8 1022.5 0.0
31/03:00am 12.1 10.7 11.0 93 0.6 E 9 11 5 6 1026.1 1022.7 0.0
31/02:30am 12.2 10.9 11.1 93 0.6 ENE 9 15 5 8 1026.6 1023.3 0.0
31/02:00am 12.5 10.5 11.4 93 0.6 ENE 13 22 7 12 1026.9 1023.6 0.0
31/01:30am 12.6 11.0 11.5 93 0.6 ENE 11 17 6 9 1026.9 1023.6 0.0
31/01:00am 12.6 10.6 11.5 93 0.6 E 13 19 7 10 1026.9 1023.6 0.0
31/12:30am 12.8 10.9 11.7 93 0.6 ENE 13 20 7 11 1026.9 1023.6 0.0
31/12:00am 12.9 10.2 11.8 93 0.6 ENE 17 20 9 11 1026.9 1023.6 0.0
 
Date/Time
EDT
Temp
°C
App
Temp
°C
Dew
Point
Rel
Hum
%
Delta-T
°C
Wind Press
QNH
hPa
Press
MSL
hPa
Rain
since 9 am
mm
Dir
 
Spd
km/h
Gust
km/h
Spd
kts
Gust
kts
30/11:30pm 12.9 10.6 11.8 93 0.6 ENE 15 20 8 11 1027.4 1024.1 0.0
30/11:25pm 13.0 10.7 11.9 93 0.6 ENE 15 22 8 12 1027.4 1024.1 0.0
30/11:03pm 13.4 11.3 12.3 93 0.6 ENE 15 22 8 12 1027.4 1024.1 0.0
30/11:00pm 13.4 11.3 12.3 93 0.6 ENE 15 20 8 11 1027.4 1024.1 0.0
30/10:30pm 13.0 10.0 10.7 86 1.3 ESE 17 22 9 12 1027.0 1023.8 0.0
30/10:00pm 12.8 10.9 9.1 78 2.0 ESE 9 13 5 7 1027.0 1023.8 0.0
30/09:30pm 12.9 10.9 8.8 76 2.2 SE 9 9 5 5 1027.0 1023.8 0.0
30/09:00pm 12.7 11.2 9.3 80 1.8 S 7 11 4 6 1027.0 1023.8 0.0
30/08:30pm 12.8 10.7 9.6 81 1.7 S 11 11 6 6 1026.9 1023.6 0.0
30/08:00pm 13.6 11.8 9.3 75 2.3 S 9 9 5 5 1026.6 1023.3 0.0
30/07:30pm 13.5 11.7 9.4 76 2.2 SSW 9 11 5 6 1026.3 1023.0 0.0
30/07:00pm 13.1 10.5 9.5 79 1.9 SE 13 15 7 8 1026.1 1022.7 0.0
30/06:30pm 14.5 12.1 8.7 68 3.1 SSW 11 15 6 8 1025.6 1022.3 0.0
30/06:00pm 15.2 12.4 8.4 64 3.6 S 13 15 7 8 1025.2 1021.9 0.0
30/05:30pm 16.0 12.7 8.0 59 4.2 S 15 17 8 9 1025.0 1021.6 0.0
30/05:00pm 16.8 13.7 7.2 53 5.0 S 13 17 7 9 1024.7 1021.4 0.0
30/04:30pm 17.0 13.1 7.1 52 5.2 S 17 20 9 11 1024.5 1021.2 0.0
30/04:00pm 18.1 14.5 5.0 42 6.6 S 13 15 7 8 1024.4 1021.1 0.0
30/03:30pm 18.3 15.0 4.8 41 6.8 S 11 13 6 7 1024.6 1021.3 0.0
30/03:00pm 18.5 15.5 4.3 39 7.1 S 9 13 5 7 1024.7 1021.4 0.0
30/02:30pm 18.6 16.0 4.0 38 7.3 SSE 7 11 4 6 1024.8 1021.5 0.0
30/02:00pm 18.8 15.8 4.2 38 7.3 S 9 13 5 7 1025.1 1021.7 0.0
30/01:30pm 19.4 16.8 3.2 34 8.0 WSW 6 15 3 8 1025.3 1022.0 0.0
30/01:00pm 19.7 16.1 3.0 33 8.2 SW 11 19 6 10 1025.5 1022.2 0.0
30/12:30pm 18.7 16.0 2.9 35 7.7 S 6 11 3 6 1026.2 1022.9 0.0
30/12:00pm 18.4 16.3 3.8 38 7.2 SE 4 9 2 5 1026.6 1023.3 0.0
30/11:30am 17.9 15.3 3.0 37 7.2 E 6 11 3 6 1026.9 1023.6 0.0
30/11:00am 17.9 14.5 4.1 40 6.8 SSE 11 15 6 8 1027.3 1024.0 0.0
30/10:30am 16.5 13.8 3.9 43 6.2 S 7 9 4 5 1027.5 1024.2 0.0
30/10:00am 15.7 14.6 5.0 49 5.3 CALM 0 0 0 0 1027.6 1024.3 0.0
30/09:30am 14.9 13.9 5.4 53 4.7 CALM 0 0 0 0 1027.4 1024.1 0.0
30/09:00am 14.4 12.6 5.5 55 4.4 SE 4 9 2 5 1026.9 1023.6 0.0
30/08:30am 13.4 11.0 5.3 58 4.0 ESE 7 9 4 5 1026.6 1023.3 0.0
30/08:00am 13.2 10.3 4.9 57 4.0 ESE 9 11 5 6 1026.5 1023.2 0.0
30/07:30am 12.7 9.4 4.7 58 3.9 ESE 11 11 6 6 1026.2 1022.9 0.0
30/07:00am 12.3 9.6 5.5 63 3.3 S 9 11 5 6 1026.1 1022.7 0.0
30/06:30am 12.0 9.3 5.6 65 3.1 SSE 9 11 5 6 1025.7 1022.4 0.0
30/06:00am 12.5 8.9 5.2 61 3.5 SSE 13 15 7 8 1025.1 1021.7 0.0
30/05:30am 12.6 9.7 4.8 59 3.8 E 9 11 5 6 1025.4 1022.1 0.0
30/05:00am 14.1 11.7 4.4 52 4.7 SW 6 7 3 4 1025.4 1022.1 0.0
30/04:30am 14.4 11.5 4.7 52 4.8 SSW 9 13 5 7 1025.2 1021.9 0.0
30/04:00am 15.3 10.9 2.8 43 5.9 WSW 15 20 8 11 1025.4 1022.1 0.0
30/03:30am 14.0 10.2 4.0 51 4.8 NNW 13 24 7 13 1025.7 1022.4 0.0
30/03:00am 13.2 9.0 3.8 53 4.5 NW 15 24 8 13 1025.7 1022.4 0.0
30/02:30am 12.0 10.4 4.7 61 3.5 E 2 6 1 3 1025.4 1022.1 0.0
30/02:00am 12.2 9.7 4.7 60 3.6 WSW 7 11 4 6 1025.5 1022.2 0.0
30/01:30am 13.1 10.6 3.5 52 4.5 NW 6 7 3 4 1025.4 1022.1 0.0
30/01:00am 14.1 11.2 2.7 46 5.3 SW 7 9 4 5 1025.6 1022.3 0.0
30/12:30am 13.9 10.7 2.8 47 5.2 SW 9 11 5 6 1025.5 1022.2 0.0
30/12:00am 14.1 10.5 3.0 47 5.2 SSW 11 13 6 7 1025.5 1022.2 0.0
 
Date/Time
EDT
Temp
°C
App
Temp
°C
Dew
Point
Rel
Hum
%
Delta-T
°C
Wind Press
QNH
hPa
Press
MSL
hPa
Rain
since 9 am
mm
Dir
 
Spd
km/h
Gust
km/h
Spd
kts
Gust
kts
29/11:30pm 13.4 10.3 3.8 52 4.6 SSW 9 11 5 6 1025.6 1022.3 0.0
29/11:00pm 14.1 10.9 3.0 47 5.2 SW 9 11 5 6 1025.9 1022.6 0.0
29/10:30pm 14.5 10.9 2.7 45 5.6 SW 11 13 6 7 1026.1 1022.7 0.0
29/10:00pm 13.0 10.2 3.4 52 4.5 WSW 7 7 4 4 1026.3 1023.0 0.0
29/09:30pm 12.7 9.5 3.1 52 4.5 SW 9 9 5 5 1025.9 1022.6 0.0
29/09:00pm 12.2 9.0 2.9 53 4.3 SW 9 11 5 6 1025.3 1022.0 0.0
29/08:30pm 12.2 8.4 1.8 49 4.7 SSW 11 11 6 6 1025.0 1021.6 0.0

Other Formats:

Comma delimited format used in spreadsheet applications
http://www.bom.gov.au/fwo/IDN60801/IDN60801.95726.axf

JavaScript Object Notation format (JSON) in row-major order
http://www.bom.gov.au/fwo/IDN60801/IDN60801.95726.json